Time;durP1;ratioP1;P1;durP2;ratioP2;P2;SDS_P1;SDS_P2;PMS_P1;PMS_P2;Temp;Humidity;BMP_temperature;BMP_pressure;BME280_temperature;BME280_humidity;BME280_pressure;Samples;Min_cycle;Max_cycle;Signal;HPM_P1;HPM_P2
2024/01/17 00:01:57;;;;;;;13.20;10.77;;;;;;;-0.67;57.64;98332.44;5126154;28;20051;-69
2024/01/17 00:04:27;;;;;;;12.80;10.48;;;;;;;-0.69;57.72;98332.47;5125926;28;20050;-69
2024/01/17 00:06:55;;;;;;;14.82;10.80;;;;;;;-0.95;57.74;98290.66;5084262;28;20075;-69
2024/01/17 00:09:22;;;;;;;16.15;10.65;;;;;;;-1.12;57.64;98249.47;5085142;28;20044;-69
2024/01/17 00:11:50;;;;;;;14.77;11.23;;;;;;;-1.00;57.75;98279.53;5084855;28;20228;-69
2024/01/17 00:14:16;;;;;;;13.75;10.45;;;;;;;-1.01;57.84;98277.78;5084884;28;20082;-69
2024/01/17 00:16:43;;;;;;;17.58;11.75;;;;;;;-0.83;57.97;98294.69;5084864;28;20044;-70
2024/01/17 00:19:10;;;;;;;13.70;10.50;;;;;;;-1.02;57.95;98265.69;5085242;28;20055;-69
2024/01/17 00:21:38;;;;;;;15.32;11.10;;;;;;;-0.83;57.87;98292.09;5085795;28;20217;-69
2024/01/17 00:24:05;;;;;;;14.43;10.98;;;;;;;-0.85;57.80;98283.47;5085190;28;20044;-70
2024/01/17 00:26:32;;;;;;;13.32;10.25;;;;;;;-0.84;57.98;98285.19;5085104;28;20044;-69
2024/01/17 00:28:58;;;;;;;16.90;12.15;;;;;;;-0.86;58.42;98282.63;5084066;28;20048;-70
2024/01/17 00:31:25;;;;;;;15.10;10.77;;;;;;;-1.08;58.28;98251.09;5085161;28;20192;-69
2024/01/17 00:33:52;;;;;;;17.17;12.25;;;;;;;-1.01;58.35;98288.19;5085151;28;20082;-69
2024/01/17 00:36:18;;;;;;;14.80;11.50;;;;;;;-1.04;58.15;98289.13;5085383;28;20293;-68
2024/01/17 00:38:46;;;;;;;16.10;11.88;;;;;;;-1.07;58.35;98278.81;5085132;28;20036;-69
2024/01/17 00:41:13;;;;;;;15.45;11.00;;;;;;;-1.07;58.07;98285.75;5084916;28;20070;-69
2024/01/17 00:43:40;;;;;;;16.95;11.68;;;;;;;-1.06;58.06;98280.50;5087012;28;20052;-69
2024/01/17 00:46:06;;;;;;;13.63;10.40;;;;;;;-1.05;58.19;98276.16;5088479;28;20040;-69
2024/01/17 00:48:33;;;;;;;21.02;12.80;;;;;;;-1.09;58.00;98278.00;5088514;28;20340;-69
2024/01/17 00:51:00;;;;;;;14.48;10.55;;;;;;;-1.16;58.30;98268.63;5088510;28;20078;-69
2024/01/17 00:53:26;;;;;;;17.30;11.20;;;;;;;-1.13;58.03;98263.34;5088434;28;20071;-69
2024/01/17 00:55:55;;;;;;;14.15;10.85;;;;;;;-1.16;58.23;98266.03;5088382;28;20070;-69
2024/01/17 00:58:22;;;;;;;14.73;11.13;;;;;;;-1.13;58.14;98260.75;5088068;28;20052;-69
2024/01/17 01:00:48;;;;;;;15.23;12.48;;;;;;;-1.17;58.11;98266.94;5088284;28;20036;-69
2024/01/17 01:03:15;;;;;;;17.10;11.02;;;;;;;-1.21;58.38;98277.44;5088028;28;20045;-70
2024/01/17 01:05:42;;;;;;;14.85;11.05;;;;;;;-1.22;58.55;98274.00;5109782;28;20055;-69
2024/01/17 01:08:08;;;;;;;14.82;11.38;;;;;;;-1.30;58.64;98270.72;5128884;28;20303;-69
2024/01/17 01:10:35;;;;;;;14.05;10.68;;;;;;;-1.43;58.47;98231.19;5128831;28;20101;-69
2024/01/17 01:13:03;;;;;;;16.65;10.38;;;;;;;-1.25;58.63;98276.66;5128511;28;20039;-69
2024/01/17 01:15:30;;;;;;;16.83;11.23;;;;;;;-1.43;58.44;98244.19;5128719;28;20040;-69
2024/01/17 01:17:57;;;;;;;15.18;10.65;;;;;;;-1.24;58.98;98272.31;5128385;28;20361;-69
2024/01/17 01:20:23;;;;;;;14.80;10.65;;;;;;;-1.29;58.63;98266.38;5128364;28;20055;-69
2024/01/17 01:22:50;;;;;;;15.10;10.27;;;;;;;-1.28;58.90;98274.16;5128870;28;20051;-69
2024/01/17 01:25:16;;;;;;;18.17;11.30;;;;;;;-1.33;59.08;98266.47;5128465;28;20040;-69
2024/01/17 01:27:43;;;;;;;16.90;11.55;;;;;;;-1.35;59.46;98264.78;5128457;28;20039;-69
2024/01/17 01:30:12;;;;;;;14.23;9.88;;;;;;;-1.32;59.20;98256.91;5128136;28;20204;-69
2024/01/17 01:32:38;;;;;;;14.90;11.55;;;;;;;-1.34;59.40;98261.31;5128149;28;20051;-69
2024/01/17 01:35:05;;;;;;;18.77;12.65;;;;;;;-1.54;59.35;98224.56;5128342;28;20191;-69
2024/01/17 01:37:32;;;;;;;17.70;11.45;;;;;;;-1.36;59.42;98255.28;5128037;28;20300;-70
2024/01/17 01:39:58;;;;;;;16.23;11.05;;;;;;;-1.36;59.11;98255.28;5128264;28;20039;-70
2024/01/17 01:42:25;;;;;;;16.52;11.45;;;;;;;-1.38;59.24;98246.66;5128246;28;20040;-69
2024/01/17 01:44:52;;;;;;;15.10;10.75;;;;;;;-1.38;59.16;98246.66;5127245;28;20047;-69
2024/01/17 01:47:20;;;;;;;15.48;10.25;;;;;;;-1.39;58.94;98247.56;5127846;28;20088;-69
2024/01/17 01:49:48;;;;;;;14.02;9.50;;;;;;;-2.11;59.55;98158.41;5127650;28;20068;-69
2024/01/17 01:52:17;;;;;;;13.02;8.98;;;;;;;-1.47;59.27;98258.16;5128010;28;20054;-69
2024/01/17 01:54:44;;;;;;;14.90;10.68;;;;;;;-1.51;59.63;98261.72;5127528;28;20043;-69
2024/01/17 01:57:11;;;;;;;13.07;10.20;;;;;;;-1.51;59.39;98256.53;5127853;28;20040;-69
2024/01/17 01:59:38;;;;;;;15.73;9.90;;;;;;;-1.55;59.54;98246.22;5127578;28;20203;-69
2024/01/17 02:02:05;;;;;;;13.55;10.45;;;;;;;-1.60;59.34;98248.09;5127806;28;20043;-69
2024/01/17 02:04:34;;;;;;;14.75;9.63;;;;;;;-1.67;59.33;98230.06;5127740;28;20035;-69
2024/01/17 02:07:02;;;;;;;13.75;9.63;;;;;;;-1.66;59.18;98223.13;5127210;28;20119;-69
2024/01/17 02:09:29;;;;;;;16.67;10.40;;;;;;;-2.08;59.19;98194.66;5127650;28;20191;-69
2024/01/17 02:11:57;;;;;;;13.65;9.60;;;;;;;-1.78;59.12;98226.84;5127645;28;20040;-69
2024/01/17 02:14:24;;;;;;;12.57;9.07;;;;;;;-1.98;59.17;98185.78;5127849;28;20235;-69
2024/01/17 02:16:51;;;;;;;12.77;9.85;;;;;;;-1.83;59.36;98218.31;5127792;28;20081;-69
2024/01/17 02:19:19;;;;;;;13.55;10.27;;;;;;;-1.85;59.57;98217.50;5127487;28;20119;-69
2024/01/17 02:21:47;;;;;;;16.10;9.82;;;;;;;-1.89;59.56;98209.81;5127749;28;20303;-69
2024/01/17 02:24:15;;;;;;;14.98;10.63;;;;;;;-1.89;59.52;98200.28;5127482;28;20192;-69
2024/01/17 02:26:42;;;;;;;12.82;9.30;;;;;;;-1.86;59.40;98188.97;5127254;28;20039;-69
2024/01/17 02:29:09;;;;;;;14.60;9.52;;;;;;;-1.87;59.51;98182.06;5127517;28;20352;-69
2024/01/17 02:31:36;;;;;;;14.00;10.57;;;;;;;-1.95;59.63;98174.47;5127226;28;20044;-69
2024/01/17 02:34:03;;;;;;;13.70;9.88;;;;;;;-2.05;59.77;98163.44;5127001;28;20040;-69
2024/01/17 02:36:30;;;;;;;15.73;10.43;;;;;;;-2.02;60.43;98162.50;5126951;28;20047;-69
2024/01/17 02:38:57;;;;;;;14.52;10.45;;;;;;;-1.99;60.13;98165.03;5126375;28;20036;-70
2024/01/17 02:41:25;;;;;;;18.15;11.73;;;;;;;-2.02;61.11;98162.50;5127164;28;20043;-69
2024/01/17 02:43:51;;;;;;;19.83;14.10;;;;;;;-2.00;61.73;98163.34;5126790;28;20051;-69
2024/01/17 02:46:18;;;;;;;18.45;13.18;;;;;;;-2.06;62.01;98153.09;5126900;28;20044;-69
2024/01/17 02:48:45;;;;;;;21.15;15.68;;;;;;;-2.32;65.29;98151.09;5126867;28;20046;-69
2024/01/17 02:51:11;;;;;;;22.05;15.63;;;;;;;-2.31;64.86;98150.22;5127128;28;20101;-69
2024/01/17 02:53:38;;;;;;;25.67;16.00;;;;;;;-2.37;65.18;98153.81;5126547;28;20047;-69
2024/01/17 02:56:05;;;;;;;25.55;17.95;;;;;;;-2.29;65.19;98148.44;5126781;28;20104;-69
2024/01/17 02:58:33;;;;;;;22.77;17.00;;;;;;;-2.25;64.98;98152.66;5126494;28;20104;-69
2024/01/17 03:00:59;;;;;;;22.67;15.63;;;;;;;-2.25;64.33;98146.63;5126695;28;20040;-69
2024/01/17 03:03:26;;;;;;;23.20;16.10;;;;;;;-2.30;65.45;98159.72;5126737;28;20043;-69
2024/01/17 03:05:52;;;;;;;23.67;16.48;;;;;;;-2.41;66.37;98157.34;5125435;28;20062;-69
2024/01/17 03:08:19;;;;;;;23.60;16.40;;;;;;;-2.44;66.03;98141.84;5126317;28;20052;-69
2024/01/17 03:10:46;;;;;;;21.25;15.18;;;;;;;-2.37;65.18;98161.59;5126568;28;20296;-69
2024/01/17 03:13:14;;;;;;;22.65;16.63;;;;;;;-2.51;65.08;98121.28;5125417;28;20047;-69
2024/01/17 03:15:42;;;;;;;22.02;16.10;;;;;;;-2.51;67.06;98158.44;5126284;28;20300;-69
2024/01/17 03:18:13;;;;;;;21.35;16.83;;;;;;;-2.44;66.21;98161.75;5126187;28;20039;-69
2024/01/17 03:20:40;;;;;;;21.52;16.00;;;;;;;-2.69;67.94;98158.84;5126404;28;20047;-69
2024/01/17 03:23:06;;;;;;;27.27;16.00;;;;;;;-2.71;68.02;98155.44;5126442;28;20043;-69
2024/01/17 03:25:33;;;;;;;24.50;16.75;;;;;;;-2.69;67.42;98159.69;5126607;28;20089;-68
2024/01/17 03:28:00;;;;;;;25.10;16.27;;;;;;;-2.62;66.59;98147.44;5126213;28;20051;-69
2024/01/17 03:30:26;;;;;;;22.98;17.30;;;;;;;-2.59;66.66;98143.94;5125506;28;20084;-69
2024/01/17 03:32:54;;;;;;;21.52;15.70;;;;;;;-2.56;65.94;98143.88;5126784;28;20043;-69
2024/01/17 03:35:21;;;;;;;21.45;15.40;;;;;;;-2.59;66.83;98131.81;5126339;28;20169;-69
2024/01/17 03:37:48;;;;;;;23.35;16.75;;;;;;;-2.53;66.07;98128.25;5126311;28;20040;-69
2024/01/17 03:40:14;;;;;;;24.90;16.35;;;;;;;-2.71;67.43;98117.38;5126313;28;20051;-69
2024/01/17 03:42:41;;;;;;;24.58;16.33;;;;;;;-2.66;67.34;98125.06;5126060;28;20120;-69
2024/01/17 03:45:08;;;;;;;27.38;18.80;;;;;;;-2.60;67.31;98122.31;5126263;28;20100;-70
2024/01/17 03:47:36;;;;;;;27.20;17.75;;;;;;;-2.79;68.50;98129.66;5126412;28;20084;-69
2024/01/17 03:50:04;;;;;;;26.55;19.10;;;;;;;-2.95;70.26;98123.09;5126123;28;20264;-69
2024/01/17 03:52:31;;;;;;;28.50;20.00;;;;;;;-2.87;69.34;98115.16;5126121;28;20051;-69
2024/01/17 03:54:58;;;;;;;26.98;17.95;;;;;;;-2.75;68.90;98117.47;5126382;28;20337;-69
2024/01/17 03:57:24;;;;;;;26.15;18.77;;;;;;;-2.72;68.15;98117.41;5125830;28;20047;-69
2024/01/17 03:59:51;;;;;;;28.17;18.52;;;;;;;-2.71;68.14;98111.34;5126050;28;20043;-70
2024/01/17 04:02:17;;;;;;;25.33;19.00;;;;;;;-2.67;68.24;98118.16;5126033;28;20043;-69
2024/01/17 04:04:45;;;;;;;25.13;17.27;;;;;;;-2.87;68.49;98086.63;5126062;28;20051;-70
2024/01/17 04:07:14;;;;;;;25.23;17.95;;;;;;;-2.73;68.44;98097.56;5126205;28;20096;-70
2024/01/17 04:09:43;;;;;;;24.42;18.27;;;;;;;-2.79;68.72;98077.78;5125987;28;20044;-70
2024/01/17 04:12:10;;;;;;;20.73;16.60;;;;;;;-2.85;68.52;98079.66;5126481;28;20176;-69
2024/01/17 04:14:36;;;;;;;23.45;16.38;;;;;;;-2.99;68.84;98082.56;5125933;28;20055;-69
2024/01/17 04:17:03;;;;;;;21.77;16.27;;;;;;;-2.99;68.72;98087.75;5127143;28;20040;-69
2024/01/17 04:19:30;;;;;;;25.30;16.50;;;;;;;-3.27;69.01;98058.97;5129604;28;20051;-69
2024/01/17 04:21:57;;;;;;;22.83;14.98;;;;;;;-3.14;68.82;98086.31;5129842;28;20044;-70
2024/01/17 04:24:25;;;;;;;19.83;14.80;;;;;;;-3.11;68.42;98086.25;5130100;28;20062;-69
2024/01/17 04:26:54;;;;;;;19.08;12.73;;;;;;;-3.01;67.56;98076.56;5129383;28;20089;-69
2024/01/17 04:29:20;;;;;;;17.75;13.55;;;;;;;-3.04;67.35;98068.84;5129397;28;20089;-70
2024/01/17 04:31:48;;;;;;;19.13;13.85;;;;;;;-3.08;67.41;98069.78;5129830;28;20292;-70
2024/01/17 04:34:15;;;;;;;19.63;15.02;;;;;;;-3.02;66.83;98061.88;5129812;28;20069;-70
2024/01/17 04:36:42;;;;;;;17.92;14.15;;;;;;;-3.02;66.59;98069.66;5129805;28;20102;-70
2024/01/17 04:39:10;;;;;;;20.15;13.90;;;;;;;-3.28;67.77;98062.44;5129523;28;20043;-69
2024/01/17 04:41:38;;;;;;;19.73;13.63;;;;;;;-3.51;68.52;98068.06;5129393;28;20303;-70
2024/01/17 04:44:05;;;;;;;17.52;13.45;;;;;;;-3.38;67.45;98054.00;5129415;28;20096;-70
2024/01/17 04:46:32;;;;;;;15.75;12.82;;;;;;;-3.58;68.70;98068.22;5129187;28;20043;-69
2024/01/17 04:48:59;;;;;;;19.40;14.40;;;;;;;-3.45;67.96;98067.97;5129557;28;20096;-69
2024/01/17 04:51:26;;;;;;;20.05;13.75;;;;;;;-3.42;67.99;98070.47;5129519;28;20067;-69
2024/01/17 04:53:53;;;;;;;18.50;14.40;;;;;;;-3.28;67.32;98077.97;5129213;28;20093;-69
2024/01/17 04:56:19;;;;;;;17.63;14.18;;;;;;;-3.33;67.81;98067.72;5129109;28;20047;-69
2024/01/17 04:58:47;;;;;;;21.50;14.30;;;;;;;-3.20;67.29;98059.69;5128350;28;20181;-69
2024/01/17 05:01:14;;;;;;;19.40;14.43;;;;;;;-3.40;68.91;98055.75;5128980;28;20049;-69
2024/01/17 05:03:43;;;;;;;20.38;13.45;;;;;;;-3.46;69.88;98074.03;5128997;28;20052;-70
2024/01/17 05:06:09;;;;;;;20.40;14.50;;;;;;;-3.38;69.03;98059.19;5128524;28;20077;-69
2024/01/17 05:08:36;;;;;;;22.75;16.08;;;;;;;-3.37;69.25;98060.03;5128896;28;20177;-69
2024/01/17 05:11:03;;;;;;;21.80;15.80;;;;;;;-3.44;69.85;98055.84;5129062;28;20292;-69
2024/01/17 05:13:29;;;;;;;21.15;15.20;;;;;;;-4.33;69.61;97894.50;5128825;28;20130;-70
2024/01/17 05:15:57;;;;;;;22.63;15.70;;;;;;;-3.45;70.88;98046.38;5129025;28;20044;-70
2024/01/17 05:18:24;;;;;;;21.75;15.93;;;;;;;-3.39;70.95;98051.44;5128465;28;20084;-70
2024/01/17 05:20:50;;;;;;;21.83;15.38;;;;;;;-3.60;70.43;98017.31;5128337;28;20039;-69
2024/01/17 05:23:17;;;;;;;22.08;14.38;;;;;;;-3.44;71.72;98050.69;5128606;28;20288;-70
2024/01/17 05:25:44;;;;;;;23.50;15.65;;;;;;;-3.38;71.50;98046.22;5128293;28;20096;-70
2024/01/17 05:28:10;;;;;;;25.08;16.17;;;;;;;-3.31;71.24;98057.31;5127931;28;20234;-69
2024/01/17 05:30:37;;;;;;;22.13;15.43;;;;;;;-3.57;73.70;98049.22;5128429;28;20045;-69
2024/01/17 05:33:06;;;;;;;23.65;15.90;;;;;;;-3.45;72.03;98043.78;5128676;28;20110;-69
2024/01/17 05:35:33;;;;;;;24.48;16.05;;;;;;;-3.35;72.07;98051.34;5128152;28;20100;-69
2024/01/17 05:37:59;;;;;;;26.13;17.02;;;;;;;-3.27;72.01;98049.44;5128567;28;20056;-69
2024/01/17 05:40:26;;;;;;;23.08;17.88;;;;;;;-3.48;71.80;98013.63;5128476;28;20073;-69
2024/01/17 05:42:53;;;;;;;22.77;14.48;;;;;;;-3.20;70.94;98045.00;5128290;28;20040;-69
2024/01/17 05:45:19;;;;;;;23.02;15.00;;;;;;;-3.58;73.36;98000.88;5127990;28;20066;-69
2024/01/17 05:47:46;;;;;;;23.25;17.08;;;;;;;-3.81;73.29;97984.03;5128129;28;20058;-69
2024/01/17 05:50:14;;;;;;;27.20;17.13;;;;;;;-3.37;72.86;98049.66;5128021;28;20055;-69
2024/01/17 05:52:42;;;;;;;21.80;15.57;;;;;;;-3.28;72.47;98047.75;5128007;28;20044;-70
2024/01/17 05:55:10;;;;;;;25.92;16.45;;;;;;;-3.31;72.58;98040.03;5128119;28;20047;-69
2024/01/17 05:57:37;;;;;;;21.25;14.93;;;;;;;-3.41;73.82;98037.66;5127881;28;20255;-69
2024/01/17 06:00:04;;;;;;;26.15;17.02;;;;;;;-3.52;72.62;98019.75;5127893;28;20280;-69
2024/01/17 06:02:31;;;;;;;21.50;15.13;;;;;;;-3.29;73.15;98056.41;5127529;28;20226;-70
2024/01/17 06:04:57;;;;;;;24.85;15.75;;;;;;;-3.31;73.36;98049.53;5127486;28;20055;-70
2024/01/17 06:07:25;;;;;;;22.83;15.77;;;;;;;-3.38;73.37;98047.97;5128218;28;20088;-71
2024/01/17 06:09:52;;;;;;;19.75;14.88;;;;;;;-3.32;72.95;98051.28;5127429;28;20051;-70
2024/01/17 06:12:19;;;;;;;21.98;14.40;;;;;;;-3.72;72.61;97991.63;5126532;28;20123;-70
2024/01/17 06:14:46;;;;;;;21.65;15.45;;;;;;;-3.43;73.60;98067.94;5128122;28;20053;-70
2024/01/17 06:17:13;;;;;;;22.65;15.35;;;;;;;-3.67;75.70;98070.06;5127816;28;20043;-69
2024/01/17 06:19:40;;;;;;;23.05;14.50;;;;;;;-3.64;75.90;98049.28;5127301;28;20067;-70
2024/01/17 06:22:06;;;;;;;22.98;16.02;;;;;;;-3.86;75.05;97985.00;5127512;28;20040;-69
2024/01/17 06:24:35;;;;;;;23.73;15.63;;;;;;;-3.45;74.75;98041.19;5127643;28;20054;-70
2024/01/17 06:27:02;;;;;;;23.75;14.32;;;;;;;-3.38;74.14;98037.59;5127570;27;20035;-70
2024/01/17 06:29:30;;;;;;;22.70;16.80;;;;;;;-4.22;74.49;97889.09;5127031;28;20092;-70
2024/01/17 06:31:57;;;;;;;24.55;15.15;;;;;;;-3.38;74.43;98028.09;5126954;28;20047;-70
2024/01/17 06:34:23;;;;;;;28.02;16.48;;;;;;;-3.38;74.52;98024.66;5127457;28;20230;-70
2024/01/17 06:36:50;;;;;;;26.33;16.95;;;;;;;-3.31;74.18;98028.81;5127160;28;20135;-70
2024/01/17 06:39:17;;;;;;;25.75;15.23;;;;;;;-3.44;75.92;98017.84;5126928;28;20051;-69
2024/01/17 06:41:46;;;;;;;25.83;16.33;;;;;;;-3.39;75.87;98028.97;5125902;28;20182;-70
2024/01/17 06:44:13;;;;;;;26.90;15.85;;;;;;;-3.38;76.43;98027.25;5126875;28;20043;-70
2024/01/17 06:46:39;;;;;;;23.30;14.68;;;;;;;-3.38;75.92;98027.25;5127029;28;20054;-70
2024/01/17 06:49:06;;;;;;;24.77;15.88;;;;;;;-3.39;75.75;98023.78;5126461;28;20328;-70
2024/01/17 06:51:32;;;;;;;28.63;17.25;;;;;;;-3.35;76.23;98016.81;5126545;28;20052;-70
2024/01/17 06:53:59;;;;;;;22.88;14.52;;;;;;;-3.39;76.85;98003.06;5126763;28;20051;-70
2024/01/17 06:56:26;;;;;;;27.02;16.30;;;;;;;-3.42;77.29;97995.38;5126777;28;20039;-70
2024/01/17 06:58:54;;;;;;;22.35;14.55;;;;;;;-3.31;76.50;97998.56;5126490;28;20077;-70
2024/01/17 07:01:21;;;;;;;21.50;14.85;;;;;;;-3.24;75.23;97983.75;5127002;28;20077;-70
2024/01/17 07:03:48;;;;;;;22.10;13.43;;;;;;;-3.25;75.48;97982.03;5126652;28;20053;-70
2024/01/17 07:06:14;;;;;;;22.55;13.77;;;;;;;-3.19;75.51;97987.09;5126251;28;20055;-70
2024/01/17 07:08:41;;;;;;;28.25;17.60;;;;;;;-3.40;77.62;97977.19;5126510;28;20292;-70
2024/01/17 07:11:10;;;;;;;23.85;14.85;;;;;;;-3.55;78.99;97970.59;5126254;28;20084;-69
2024/01/17 07:13:37;;;;;;;21.48;14.50;;;;;;;-3.57;79.40;97982.72;5126800;28;20111;-70
2024/01/17 07:16:06;;;;;;;24.50;15.55;;;;;;;-3.45;78.46;97982.47;5126452;28;20054;-70
2024/01/17 07:18:34;;;;;;;23.48;14.55;;;;;;;-3.48;79.01;97985.13;5126652;28;20035;-70
2024/01/17 07:21:05;;;;;;;24.48;15.32;;;;;;;-3.37;77.80;97985.75;5126149;28;20110;-70
2024/01/17 07:23:32;;;;;;;22.67;15.23;;;;;;;-3.38;78.45;97993.56;5126449;28;20088;-68
2024/01/17 07:25:59;;;;;;;23.30;15.95;;;;;;;-3.25;77.49;97999.34;5126446;28;20047;-69
2024/01/17 07:28:25;;;;;;;27.63;16.75;;;;;;;-3.24;77.52;97988.94;5125867;28;20047;-70
2024/01/17 07:30:52;;;;;;;25.75;17.20;;;;;;;-3.27;78.18;97984.66;5126267;28;20096;-70
2024/01/17 07:33:20;;;;;;;30.02;17.15;;;;;;;-3.28;78.43;97990.75;5126559;28;20100;-70
2024/01/17 07:35:47;;;;;;;25.20;16.23;;;;;;;-3.20;77.69;97987.97;5126259;28;20063;-70
2024/01/17 07:38:14;;;;;;;27.05;17.00;;;;;;;-3.35;79.02;97985.72;5126799;28;20199;-70
2024/01/17 07:40:41;;;;;;;25.48;17.15;;;;;;;-3.37;79.36;97982.31;5126255;28;20039;-70
2024/01/17 07:43:08;;;;;;;25.67;15.70;;;;;;;-3.38;77.08;97936.56;5126536;28;20101;-70
2024/01/17 07:45:35;;;;;;;25.30;15.90;;;;;;;-3.19;78.19;97962.91;5126138;28;20044;-70
2024/01/17 07:48:02;;;;;;;25.77;16.88;;;;;;;-3.27;78.88;97960.50;5126083;28;20044;-70
2024/01/17 07:50:30;;;;;;;28.58;15.73;;;;;;;-3.27;78.93;97950.13;5126145;28;20100;-70
2024/01/17 07:52:57;;;;;;;27.60;17.00;;;;;;;-3.32;79.79;97955.41;5129076;28;20043;-70
2024/01/17 07:55:23;;;;;;;25.83;16.50;;;;;;;-3.42;80.43;97956.50;5130303;28;20096;-69
2024/01/17 07:57:51;;;;;;;24.52;16.00;;;;;;;-3.36;80.31;97938.25;5130285;28;20062;-70
2024/01/17 08:00:18;;;;;;;25.92;15.50;;;;;;;-3.43;81.12;97941.00;5130177;28;20043;-70
2024/01/17 08:02:45;;;;;;;29.10;16.73;;;;;;;-3.35;80.36;97939.94;5129789;28;20067;-70
2024/01/17 08:05:12;;;;;;;24.73;14.23;;;;;;;-3.48;81.63;97930.75;5129868;28;20048;-70
2024/01/17 08:07:40;;;;;;;24.20;14.82;;;;;;;-3.41;81.99;97928.88;5129958;28;20111;-69
2024/01/17 08:10:07;;;;;;;24.20;16.83;;;;;;;-3.47;82.14;97926.41;5130016;28;20226;-70
2024/01/17 08:12:34;;;;;;;25.30;14.13;;;;;;;-3.37;81.27;97920.13;5129564;28;20043;-70
2024/01/17 08:15:01;;;;;;;24.17;16.15;;;;;;;-3.30;80.77;97919.13;5129846;28;20237;-70
2024/01/17 08:17:27;;;;;;;27.13;16.65;;;;;;;-3.46;82.25;97918.59;5130124;28;20218;-70
2024/01/17 08:19:54;;;;;;;26.58;15.07;;;;;;;-3.30;81.19;97911.34;5129160;28;20036;-70
2024/01/17 08:22:21;;;;;;;27.45;16.50;;;;;;;-3.35;80.77;97916.63;5130052;28;20100;-70
2024/01/17 08:24:49;;;;;;;24.85;14.52;;;;;;;-3.35;80.82;97905.41;5129760;28;20040;-70
2024/01/17 08:27:16;;;;;;;21.65;13.07;;;;;;;-3.31;80.49;97894.09;5129512;28;20050;-70
2024/01/17 08:29:45;;;;;;;23.40;14.10;;;;;;;-3.20;80.14;97899.03;5129617;28;20104;-70
2024/01/17 08:32:11;;;;;;;22.33;15.27;;;;;;;-3.13;79.65;97898.00;5129322;28;20039;-70
2024/01/17 08:34:38;;;;;;;21.95;14.80;;;;;;;-3.24;80.30;97889.63;5129026;28;20055;-70
2024/01/17 08:37:05;;;;;;;24.58;15.40;;;;;;;-3.16;79.72;97885.09;5129483;28;20052;-69
2024/01/17 08:39:31;;;;;;;25.48;15.07;;;;;;;-3.47;80.28;97852.16;5129421;28;20040;-70
2024/01/17 08:41:59;;;;;;;22.50;15.23;;;;;;;-3.16;79.84;97893.72;5129292;28;20043;-70
2024/01/17 08:44:26;;;;;;;25.00;16.08;;;;;;;-3.18;79.86;97877.38;5129152;28;20043;-69
2024/01/17 08:46:53;;;;;;;25.75;14.82;;;;;;;-3.27;80.75;97887.94;5128966;28;20040;-69
2024/01/17 08:49:20;;;;;;;25.73;15.15;;;;;;;-3.44;80.60;97844.31;5129180;28;20059;-69
2024/01/17 08:51:47;;;;;;;22.45;15.07;;;;;;;-3.51;80.93;97822.03;5129225;28;20379;-69
2024/01/17 08:54:14;;;;;;;25.05;17.15;;;;;;;-3.23;80.80;97868.84;5128836;28;20081;-69
2024/01/17 08:56:40;;;;;;;25.55;15.75;;;;;;;-3.19;80.54;97859.28;5129098;28;20043;-69
2024/01/17 08:59:09;;;;;;;25.33;17.27;;;;;;;-3.19;80.65;97854.09;5129407;28;20043;-69
2024/01/17 09:01:35;;;;;;;24.42;16.10;;;;;;;-3.38;80.32;97809.63;5129299;28;20115;-69
2024/01/17 09:04:02;;;;;;;26.60;15.18;;;;;;;-3.08;80.41;97850.34;5127706;28;20055;-69
2024/01/17 09:06:29;;;;;;;25.67;15.48;;;;;;;-3.08;80.28;97852.94;5128454;28;20117;-69
2024/01/17 09:08:55;;;;;;;26.27;17.50;;;;;;;-3.24;80.14;97807.56;5128735;28;20043;-69
2024/01/17 09:11:22;;;;;;;25.27;15.70;;;;;;;-3.06;80.60;97839.94;5128747;28;20261;-69
2024/01/17 09:13:49;;;;;;;24.63;14.00;;;;;;;-3.12;81.13;97842.69;5128747;28;20093;-69
2024/01/17 09:16:17;;;;;;;24.23;15.40;;;;;;;-3.17;81.44;97836.75;5127512;28;20126;-69
2024/01/17 09:18:43;;;;;;;28.33;15.57;;;;;;;-3.14;81.26;97826.31;5128284;28;20036;-69
2024/01/17 09:21:10;;;;;;;26.55;15.63;;;;;;;-3.02;80.54;97815.66;5128116;28;20203;-69
2024/01/17 09:23:37;;;;;;;25.35;14.73;;;;;;;-3.05;81.03;97819.16;5128580;28;20199;-68
2024/01/17 09:26:04;;;;;;;27.23;16.45;;;;;;;-3.05;81.10;97824.34;5128433;28;20115;-69
2024/01/17 09:28:31;;;;;;;26.63;16.27;;;;;;;-2.98;80.40;97828.50;5128430;28;20238;-69
2024/01/17 09:30:58;;;;;;;24.95;13.93;;;;;;;-3.03;80.80;97813.94;5128427;28;20097;-69
2024/01/17 09:33:26;;;;;;;27.95;16.35;;;;;;;-3.00;80.89;97808.69;5128264;28;20043;-69
2024/01/17 09:35:53;;;;;;;27.67;16.65;;;;;;;-3.04;81.29;97807.06;5128334;28;20176;-69
2024/01/17 09:38:20;;;;;;;24.08;16.88;;;;;;;-3.04;81.41;97797.53;5128249;28;20260;-69
2024/01/17 09:40:49;;;;;;;27.85;15.82;;;;;;;-3.03;81.25;97796.66;5127887;28;20100;-69
2024/01/17 09:43:16;;;;;;;27.65;16.58;;;;;;;-3.06;81.26;97794.13;5128507;28;20043;-69
2024/01/17 09:45:43;;;;;;;27.25;16.60;;;;;;;-3.11;82.18;97783.03;5128418;28;20108;-69
2024/01/17 09:48:12;;;;;;;26.35;15.70;;;;;;;-3.05;82.27;97780.28;5128204;28;20088;-69
2024/01/17 09:50:40;;;;;;;28.92;19.13;;;;;;;-3.02;82.28;97779.34;5128186;28;20169;-68
2024/01/17 09:53:12;;;;;;;26.30;16.73;;;;;;;-3.05;82.56;97772.50;5128255;28;20059;-69
2024/01/17 09:55:40;;;;;;;25.63;16.75;;;;;;;-3.04;82.50;97771.63;5127938;28;20044;-69
2024/01/17 09:58:07;;;;;;;25.38;17.85;;;;;;;-3.05;83.01;97756.97;5127849;28;20132;-69
2024/01/17 10:00:35;;;;;;;27.50;16.20;;;;;;;-2.93;82.09;97752.34;5127837;28;20287;-69
2024/01/17 10:03:03;;;;;;;24.80;16.20;;;;;;;-3.48;81.26;97663.97;5127709;28;20039;-69
2024/01/17 10:05:33;;;;;;;27.35;16.05;;;;;;;-2.87;81.61;97747.00;5127225;28;20282;-69
2024/01/17 10:08:01;;;;;;;28.52;18.30;;;;;;;-2.90;82.06;97732.38;5126949;28;20047;-69
2024/01/17 10:10:28;;;;;;;30.65;16.20;;;;;;;-2.87;82.05;97719.31;5127764;28;20043;-69
2024/01/17 10:12:55;;;;;;;30.02;18.05;;;;;;;-2.82;81.44;97704.50;5127433;28;20300;-69
2024/01/17 10:15:23;;;;;;;30.02;17.95;;;;;;;-2.85;82.17;97696.81;5127268;28;20051;-69
2024/01/17 10:17:50;;;;;;;29.17;16.85;;;;;;;-3.55;81.69;97591.66;5127263;28;20062;-69
2024/01/17 10:20:17;;;;;;;29.50;19.27;;;;;;;-2.71;81.38;97688.63;5127319;28;20295;-69
2024/01/17 10:22:46;;;;;;;30.80;17.33;;;;;;;-2.70;81.53;97675.63;5126940;28;20315;-68
2024/01/17 10:25:14;;;;;;;33.13;17.40;;;;;;;-2.64;81.33;97687.56;5127544;28;20043;-70
2024/01/17 10:27:41;;;;;;;27.10;17.55;;;;;;;-2.75;81.90;97674.91;5127076;28;20108;-69
2024/01/17 10:30:11;;;;;;;29.80;18.05;;;;;;;-2.71;82.07;97647.13;5127107;28;20308;-69
2024/01/17 10:32:38;;;;;;;29.08;19.95;;;;;;;-2.65;81.63;97644.38;5126872;28;20063;-69
2024/01/17 10:35:05;;;;;;;32.38;18.08;;;;;;;-2.60;81.43;97652.84;5127022;28;20130;-68
2024/01/17 10:37:33;;;;;;;33.75;19.13;;;;;;;-2.66;82.10;97634.88;5126801;28;20047;-69
2024/01/17 10:40:11;;;;;;;30.42;19.98;;;;;;;-2.57;81.67;97631.16;5126732;28;20353;-69
2024/01/17 10:42:41;;;;;;;30.20;19.58;;;;;;;-2.60;81.92;97616.56;5126718;28;20115;-69
2024/01/17 10:45:08;;;;;;;31.02;19.10;;;;;;;-2.65;82.23;97608.91;5127009;28;20050;-69
2024/01/17 10:47:35;;;;;;;32.20;18.08;;;;;;;-2.64;82.81;97600.22;5127134;28;20074;-69
2024/01/17 10:50:02;;;;;;;31.95;17.00;;;;;;;-2.58;82.40;97600.94;5126857;28;20167;-69
2024/01/17 10:52:36;;;;;;;31.70;20.67;;;;;;;-2.55;82.48;97595.66;5127015;28;20089;-69
2024/01/17 10:55:05;;;;;;;33.72;19.45;;;;;;;-2.61;82.64;97594.09;5126779;28;20043;-69
2024/01/17 10:57:34;;;;;;;34.03;20.42;;;;;;;-2.56;82.40;97576.66;5126847;28;20218;-69
2024/01/17 11:00:03;;;;;;;37.20;21.63;;;;;;;-2.54;82.60;97566.22;5125526;28;20042;-70
2024/01/17 11:02:32;;;;;;;35.55;19.52;;;;;;;-2.73;82.87;97516.69;5126440;28;20059;-69
2024/01/17 11:05:04;;;;;;;38.38;20.23;;;;;;;-2.48;82.69;97540.09;5126192;28;20062;-70
2024/01/17 11:07:32;;;;;;;35.95;22.10;;;;;;;-2.42;82.41;97545.09;5126304;28;20045;-68
2024/01/17 11:10:00;;;;;;;34.10;19.65;;;;;;;-2.42;82.61;97542.50;5127259;28;20089;-69
2024/01/17 11:12:29;;;;;;;34.05;19.42;;;;;;;-2.39;82.66;97547.59;5126177;28;20061;-69
2024/01/17 11:14:57;;;;;;;33.80;19.02;;;;;;;-2.33;82.17;97550.84;5126465;28;20309;-69
2024/01/17 11:17:28;;;;;;;33.95;19.73;;;;;;;-2.27;81.64;97546.34;5126441;28;20054;-69